Monday, November 20, 2017, 7:39 AM GMT
Back to Local

CXCH, Cheticamp, N. S.

Location: , , Canada Lat: 46.65
Local Time: 7:39 AM GMT ( 7:39 GMT) Lon: -60.95
Time Zone: GMT Elev: 144 ft

Show me the last for .
Show Coded

Time T Td Feel RH Dir Speed Gust Alt SLP Vis Weather Sky Remarks
2017-11-20 07:00 54 46 - 75 - - - - - 0 None
2017-11-20 06:00 56 48 - 74 - - - - - 0 None
2017-11-20 05:00 59 49 - 70 - - - - - 0 None
2017-11-20 04:00 61 55 - 81 - - - - - 0 None
2017-11-20 03:00 58 55 - 90 - - - - - 0 1-hr Precip Total: 0.03"
2017-11-20 02:00 62 56 - 83 - - - - - 0 1-hr Precip Total: 0.03"
2017-11-20 01:00 58 53 - 81 - - - - - 0 None
2017-11-20 00:00 55 51 - 87 - - - - - 0 1-hr Precip Total: 0.04"
2017-11-19 23:00 52 49 - 89 - - - - - 0 1-hr Precip Total: 0.05"
2017-11-19 22:00 49 44 - 82 - - - - - 0 None
2017-11-19 21:00 48 42 - 79 - - - - - 0 None
2017-11-19 20:00 47 43 - 86 - - - - - 0 None
2017-11-19 19:00 46 42 - 86 - - - - - 0 1-hr Precip Total: 0.03"
2017-11-19 18:00 44 40 - 88 - - - - - 0 1-hr Precip Total: 0.04"
2017-11-19 17:00 42 38 - 85 - - - - - 0 None
2017-11-19 16:00 41 33 - 73 - - - - - 0 None
2017-11-19 15:00 40 32 - 72 - - - - - 0 1-hr Precip Total: 0.03"
2017-11-19 14:00 39 31 - 72 - - - - - 0 None
2017-11-19 13:00 38 32 - 77 - - - - - 0 None
2017-11-19 12:00 34 32 - 91 - - - - - 0 None
2017-11-19 11:00 32 31 - 95 - - - - - 0 None
2017-11-19 10:00 35 33 - 94 - - - - - 0 None
2017-11-19 09:00 36 35 - 94 - - - - - 0 None
2017-11-19 08:00 37 34 - 89 - - - - - 0 None

Support USWX by starting your Amazon purchase here.